sensor_id;sensor_type;location;lat;lon;timestamp;P1;durP1;ratioP1;P2;durP2;ratioP2
10347;SDS011;5220;43.192;23.284;2022-07-30T00:02:15;3.03;;;2.75;;
10347;SDS011;5220;43.192;23.284;2022-07-30T00:04:44;4.65;;;3.03;;
10347;SDS011;5220;43.192;23.284;2022-07-30T00:07:11;5.88;;;3.35;;
10347;SDS011;5220;43.192;23.284;2022-07-30T00:09:38;4.80;;;3.17;;
10347;SDS011;5220;43.192;23.284;2022-07-30T00:12:05;8.43;;;3.50;;
10347;SDS011;5220;43.192;23.284;2022-07-30T00:14:33;3.45;;;2.70;;
10347;SDS011;5220;43.192;23.284;2022-07-30T00:17:01;4.43;;;3.00;;
10347;SDS011;5220;43.192;23.284;2022-07-30T00:19:28;5.82;;;3.45;;
10347;SDS011;5220;43.192;23.284;2022-07-30T00:21:57;4.82;;;3.05;;
10347;SDS011;5220;43.192;23.284;2022-07-30T00:24:24;3.00;;;2.72;;
10347;SDS011;5220;43.192;23.284;2022-07-30T00:26:51;3.35;;;2.88;;
10347;SDS011;5220;43.192;23.284;2022-07-30T00:29:18;10.18;;;3.40;;
10347;SDS011;5220;43.192;23.284;2022-07-30T00:31:45;4.88;;;3.10;;
10347;SDS011;5220;43.192;23.284;2022-07-30T00:34:11;4.18;;;3.20;;
10347;SDS011;5220;43.192;23.284;2022-07-30T00:36:38;3.58;;;2.78;;
10347;SDS011;5220;43.192;23.284;2022-07-30T00:39:06;3.25;;;3.00;;
10347;SDS011;5220;43.192;23.284;2022-07-30T00:41:34;3.72;;;3.30;;
10347;SDS011;5220;43.192;23.284;2022-07-30T00:44:18;3.33;;;3.03;;
10347;SDS011;5220;43.192;23.284;2022-07-30T00:46:45;3.53;;;3.17;;
10347;SDS011;5220;43.192;23.284;2022-07-30T00:49:11;3.40;;;3.03;;
10347;SDS011;5220;43.192;23.284;2022-07-30T00:51:38;3.78;;;3.08;;
10347;SDS011;5220;43.192;23.284;2022-07-30T00:54:06;4.28;;;3.13;;
10347;SDS011;5220;43.192;23.284;2022-07-30T00:56:33;3.60;;;3.30;;
10347;SDS011;5220;43.192;23.284;2022-07-30T00:59:00;3.13;;;2.92;;
10347;SDS011;5220;43.192;23.284;2022-07-30T01:01:26;4.50;;;3.03;;
10347;SDS011;5220;43.192;23.284;2022-07-30T01:03:53;3.45;;;3.13;;
10347;SDS011;5220;43.192;23.284;2022-07-30T01:06:20;4.13;;;3.08;;
10347;SDS011;5220;43.192;23.284;2022-07-30T01:08:46;4.57;;;3.17;;
10347;SDS011;5220;43.192;23.284;2022-07-30T01:11:15;5.10;;;3.03;;
10347;SDS011;5220;43.192;23.284;2022-07-30T01:13:42;6.93;;;2.92;;
10347;SDS011;5220;43.192;23.284;2022-07-30T01:16:09;8.75;;;3.45;;
10347;SDS011;5220;43.192;23.284;2022-07-30T01:18:36;4.00;;;3.15;;
10347;SDS011;5220;43.192;23.284;2022-07-30T01:21:22;3.47;;;3.20;;
10347;SDS011;5220;43.192;23.284;2022-07-30T01:23:58;4.72;;;3.10;;
10347;SDS011;5220;43.192;23.284;2022-07-30T01:26:36;3.38;;;3.10;;
10347;SDS011;5220;43.192;23.284;2022-07-30T01:29:03;3.50;;;3.30;;
10347;SDS011;5220;43.192;23.284;2022-07-30T01:31:31;4.10;;;3.40;;
10347;SDS011;5220;43.192;23.284;2022-07-30T01:33:59;4.78;;;3.22;;
10347;SDS011;5220;43.192;23.284;2022-07-30T01:36:27;3.67;;;3.38;;
10347;SDS011;5220;43.192;23.284;2022-07-30T01:38:55;3.90;;;3.00;;
10347;SDS011;5220;43.192;23.284;2022-07-30T01:41:24;3.88;;;3.28;;
10347;SDS011;5220;43.192;23.284;2022-07-30T01:43:55;4.03;;;3.58;;
10347;SDS011;5220;43.192;23.284;2022-07-30T01:46:23;4.25;;;3.50;;
10347;SDS011;5220;43.192;23.284;2022-07-30T01:48:51;4.65;;;3.55;;
10347;SDS011;5220;43.192;23.284;2022-07-30T01:51:21;5.78;;;3.53;;
10347;SDS011;5220;43.192;23.284;2022-07-30T01:53:49;4.18;;;3.30;;
10347;SDS011;5220;43.192;23.284;2022-07-30T01:56:18;3.80;;;3.50;;
10347;SDS011;5220;43.192;23.284;2022-07-30T01:58:48;5.65;;;3.75;;
10347;SDS011;5220;43.192;23.284;2022-07-30T02:01:19;7.07;;;4.20;;
10347;SDS011;5220;43.192;23.284;2022-07-30T02:03:46;4.72;;;3.90;;
10347;SDS011;5220;43.192;23.284;2022-07-30T02:06:14;3.70;;;3.40;;
10347;SDS011;5220;43.192;23.284;2022-07-30T02:08:47;4.13;;;3.72;;
10347;SDS011;5220;43.192;23.284;2022-07-30T02:11:19;3.63;;;3.33;;
10347;SDS011;5220;43.192;23.284;2022-07-30T02:14:00;4.25;;;3.85;;
10347;SDS011;5220;43.192;23.284;2022-07-30T02:16:34;8.25;;;3.47;;
10347;SDS011;5220;43.192;23.284;2022-07-30T02:19:04;3.92;;;3.53;;
10347;SDS011;5220;43.192;23.284;2022-07-30T02:21:36;6.57;;;3.65;;
10347;SDS011;5220;43.192;23.284;2022-07-30T02:24:06;3.85;;;3.55;;
10347;SDS011;5220;43.192;23.284;2022-07-30T02:26:37;4.43;;;3.60;;
10347;SDS011;5220;43.192;23.284;2022-07-30T02:29:07;3.60;;;3.30;;
10347;SDS011;5220;43.192;23.284;2022-07-30T02:31:37;4.97;;;3.95;;
10347;SDS011;5220;43.192;23.284;2022-07-30T02:34:06;4.35;;;3.67;;
10347;SDS011;5220;43.192;23.284;2022-07-30T02:36:35;3.83;;;3.53;;
10347;SDS011;5220;43.192;23.284;2022-07-30T02:39:04;3.88;;;3.58;;
10347;SDS011;5220;43.192;23.284;2022-07-30T02:41:32;5.47;;;4.03;;
10347;SDS011;5220;43.192;23.284;2022-07-30T02:44:03;4.43;;;4.05;;
10347;SDS011;5220;43.192;23.284;2022-07-30T02:46:31;4.20;;;3.60;;
10347;SDS011;5220;43.192;23.284;2022-07-30T02:49:00;4.30;;;3.50;;
10347;SDS011;5220;43.192;23.284;2022-07-30T02:51:28;4.43;;;3.60;;
10347;SDS011;5220;43.192;23.284;2022-07-30T02:53:56;3.63;;;3.33;;
10347;SDS011;5220;43.192;23.284;2022-07-30T02:56:25;5.30;;;3.97;;
10347;SDS011;5220;43.192;23.284;2022-07-30T02:58:54;4.15;;;3.75;;
10347;SDS011;5220;43.192;23.284;2022-07-30T03:01:22;4.10;;;3.78;;
10347;SDS011;5220;43.192;23.284;2022-07-30T03:03:50;4.85;;;3.95;;
10347;SDS011;5220;43.192;23.284;2022-07-30T03:06:20;5.85;;;3.70;;
10347;SDS011;5220;43.192;23.284;2022-07-30T03:08:50;4.78;;;3.80;;
10347;SDS011;5220;43.192;23.284;2022-07-30T03:11:19;7.00;;;3.67;;
10347;SDS011;5220;43.192;23.284;2022-07-30T03:13:47;4.30;;;3.90;;
10347;SDS011;5220;43.192;23.284;2022-07-30T03:16:14;5.28;;;4.20;;
10347;SDS011;5220;43.192;23.284;2022-07-30T03:18:42;4.50;;;4.10;;
10347;SDS011;5220;43.192;23.284;2022-07-30T03:21:12;4.90;;;4.00;;
10347;SDS011;5220;43.192;23.284;2022-07-30T03:23:43;5.82;;;4.10;;
10347;SDS011;5220;43.192;23.284;2022-07-30T03:26:13;6.95;;;4.00;;
10347;SDS011;5220;43.192;23.284;2022-07-30T03:28:41;6.20;;;4.03;;
10347;SDS011;5220;43.192;23.284;2022-07-30T03:31:09;6.20;;;4.30;;
10347;SDS011;5220;43.192;23.284;2022-07-30T03:33:37;7.88;;;4.22;;
10347;SDS011;5220;43.192;23.284;2022-07-30T03:36:06;7.15;;;4.85;;
10347;SDS011;5220;43.192;23.284;2022-07-30T03:38:34;5.05;;;4.65;;
10347;SDS011;5220;43.192;23.284;2022-07-30T03:41:04;5.35;;;3.90;;
10347;SDS011;5220;43.192;23.284;2022-07-30T03:43:32;5.80;;;3.97;;
10347;SDS011;5220;43.192;23.284;2022-07-30T03:46:00;7.60;;;5.45;;
10347;SDS011;5220;43.192;23.284;2022-07-30T03:48:28;5.15;;;4.15;;
10347;SDS011;5220;43.192;23.284;2022-07-30T03:50:56;4.78;;;4.30;;
10347;SDS011;5220;43.192;23.284;2022-07-30T03:53:24;6.00;;;4.43;;
10347;SDS011;5220;43.192;23.284;2022-07-30T03:55:52;4.95;;;4.20;;
10347;SDS011;5220;43.192;23.284;2022-07-30T03:58:21;6.40;;;4.43;;
10347;SDS011;5220;43.192;23.284;2022-07-30T04:00:49;6.60;;;4.47;;
10347;SDS011;5220;43.192;23.284;2022-07-30T04:03:23;4.78;;;4.38;;
10347;SDS011;5220;43.192;23.284;2022-07-30T04:05:50;5.70;;;4.03;;
10347;SDS011;5220;43.192;23.284;2022-07-30T04:08:17;4.00;;;3.70;;
10347;SDS011;5220;43.192;23.284;2022-07-30T04:10:43;4.63;;;4.22;;
10347;SDS011;5220;43.192;23.284;2022-07-30T04:13:10;4.63;;;4.20;;
10347;SDS011;5220;43.192;23.284;2022-07-30T04:15:40;6.85;;;4.80;;
10347;SDS011;5220;43.192;23.284;2022-07-30T04:18:14;4.47;;;4.07;;
10347;SDS011;5220;43.192;23.284;2022-07-30T04:20:45;4.30;;;3.67;;
10347;SDS011;5220;43.192;23.284;2022-07-30T04:23:14;5.53;;;4.22;;
10347;SDS011;5220;43.192;23.284;2022-07-30T04:25:41;4.93;;;4.53;;
10347;SDS011;5220;43.192;23.284;2022-07-30T04:28:09;5.13;;;4.15;;
10347;SDS011;5220;43.192;23.284;2022-07-30T04:30:38;4.85;;;4.22;;
10347;SDS011;5220;43.192;23.284;2022-07-30T04:33:07;5.13;;;4.30;;
10347;SDS011;5220;43.192;23.284;2022-07-30T04:35:34;7.05;;;4.15;;
10347;SDS011;5220;43.192;23.284;2022-07-30T04:38:01;5.38;;;4.13;;
10347;SDS011;5220;43.192;23.284;2022-07-30T04:40:28;5.45;;;4.07;;
10347;SDS011;5220;43.192;23.284;2022-07-30T04:42:56;5.78;;;4.72;;
10347;SDS011;5220;43.192;23.284;2022-07-30T04:45:24;4.65;;;4.22;;
10347;SDS011;5220;43.192;23.284;2022-07-30T04:47:52;5.35;;;4.68;;
10347;SDS011;5220;43.192;23.284;2022-07-30T04:50:19;8.05;;;5.00;;
10347;SDS011;5220;43.192;23.284;2022-07-30T04:52:48;5.10;;;4.60;;
10347;SDS011;5220;43.192;23.284;2022-07-30T04:55:16;4.90;;;4.40;;
10347;SDS011;5220;43.192;23.284;2022-07-30T04:57:45;5.60;;;4.47;;
10347;SDS011;5220;43.192;23.284;2022-07-30T05:00:14;4.85;;;4.45;;
10347;SDS011;5220;43.192;23.284;2022-07-30T05:02:41;6.00;;;4.97;;
10347;SDS011;5220;43.192;23.284;2022-07-30T05:05:11;4.63;;;4.32;;
10347;SDS011;5220;43.192;23.284;2022-07-30T05:07:40;5.72;;;4.78;;
10347;SDS011;5220;43.192;23.284;2022-07-30T05:10:08;9.52;;;4.80;;
10347;SDS011;5220;43.192;23.284;2022-07-30T05:12:36;5.80;;;4.80;;
10347;SDS011;5220;43.192;23.284;2022-07-30T05:15:04;5.03;;;4.55;;
10347;SDS011;5220;43.192;23.284;2022-07-30T05:17:32;4.80;;;4.20;;
10347;SDS011;5220;43.192;23.284;2022-07-30T05:19:58;9.18;;;4.68;;
10347;SDS011;5220;43.192;23.284;2022-07-30T05:22:27;5.88;;;4.63;;
10347;SDS011;5220;43.192;23.284;2022-07-30T05:24:54;7.53;;;4.85;;
10347;SDS011;5220;43.192;23.284;2022-07-30T05:27:21;6.18;;;5.05;;
10347;SDS011;5220;43.192;23.284;2022-07-30T05:29:48;5.50;;;4.88;;
10347;SDS011;5220;43.192;23.284;2022-07-30T05:32:15;5.60;;;5.05;;
10347;SDS011;5220;43.192;23.284;2022-07-30T05:34:41;5.13;;;4.57;;
10347;SDS011;5220;43.192;23.284;2022-07-30T05:37:08;6.47;;;5.85;;
10347;SDS011;5220;43.192;23.284;2022-07-30T05:39:36;6.40;;;5.60;;
10347;SDS011;5220;43.192;23.284;2022-07-30T05:42:03;7.50;;;4.85;;
10347;SDS011;5220;43.192;23.284;2022-07-30T05:44:30;5.55;;;5.00;;
10347;SDS011;5220;43.192;23.284;2022-07-30T05:46:57;8.68;;;6.30;;
10347;SDS011;5220;43.192;23.284;2022-07-30T05:49:23;6.70;;;5.35;;
10347;SDS011;5220;43.192;23.284;2022-07-30T05:51:50;5.55;;;5.05;;
10347;SDS011;5220;43.192;23.284;2022-07-30T05:54:17;9.98;;;5.07;;
10347;SDS011;5220;43.192;23.284;2022-07-30T05:56:45;6.80;;;5.07;;
10347;SDS011;5220;43.192;23.284;2022-07-30T05:59:12;5.75;;;5.03;;
10347;SDS011;5220;43.192;23.284;2022-07-30T06:01:40;6.18;;;5.57;;
10347;SDS011;5220;43.192;23.284;2022-07-30T06:04:06;5.47;;;5.00;;
10347;SDS011;5220;43.192;23.284;2022-07-30T06:06:33;5.53;;;5.03;;
10347;SDS011;5220;43.192;23.284;2022-07-30T06:09:00;6.05;;;5.35;;
10347;SDS011;5220;43.192;23.284;2022-07-30T06:11:27;5.57;;;5.00;;
10347;SDS011;5220;43.192;23.284;2022-07-30T06:13:55;5.43;;;5.00;;
10347;SDS011;5220;43.192;23.284;2022-07-30T06:16:22;5.05;;;4.65;;
10347;SDS011;5220;43.192;23.284;2022-07-30T06:18:48;5.80;;;5.20;;
10347;SDS011;5220;43.192;23.284;2022-07-30T06:21:15;5.60;;;4.90;;
10347;SDS011;5220;43.192;23.284;2022-07-30T06:23:43;5.90;;;5.40;;
10347;SDS011;5220;43.192;23.284;2022-07-30T06:26:10;7.47;;;5.45;;
10347;SDS011;5220;43.192;23.284;2022-07-30T06:28:36;6.60;;;4.78;;
10347;SDS011;5220;43.192;23.284;2022-07-30T06:31:05;8.35;;;5.30;;
10347;SDS011;5220;43.192;23.284;2022-07-30T06:33:31;6.72;;;5.43;;
10347;SDS011;5220;43.192;23.284;2022-07-30T06:35:58;6.28;;;5.60;;
10347;SDS011;5220;43.192;23.284;2022-07-30T06:38:25;6.63;;;4.82;;
10347;SDS011;5220;43.192;23.284;2022-07-30T06:40:52;6.85;;;5.38;;
10347;SDS011;5220;43.192;23.284;2022-07-30T06:43:19;6.78;;;5.47;;
10347;SDS011;5220;43.192;23.284;2022-07-30T06:45:46;6.22;;;5.65;;
10347;SDS011;5220;43.192;23.284;2022-07-30T06:48:14;5.72;;;5.10;;
10347;SDS011;5220;43.192;23.284;2022-07-30T06:50:41;8.07;;;5.75;;
10347;SDS011;5220;43.192;23.284;2022-07-30T06:53:07;6.85;;;5.82;;
10347;SDS011;5220;43.192;23.284;2022-07-30T06:55:34;7.25;;;6.53;;
10347;SDS011;5220;43.192;23.284;2022-07-30T06:58:01;8.25;;;6.38;;
10347;SDS011;5220;43.192;23.284;2022-07-30T07:00:28;7.38;;;6.68;;
10347;SDS011;5220;43.192;23.284;2022-07-30T07:02:55;8.27;;;6.63;;
10347;SDS011;5220;43.192;23.284;2022-07-30T07:05:23;7.25;;;6.60;;
10347;SDS011;5220;43.192;23.284;2022-07-30T07:07:53;8.85;;;6.43;;
10347;SDS011;5220;43.192;23.284;2022-07-30T07:10:19;7.53;;;6.82;;
10347;SDS011;5220;43.192;23.284;2022-07-30T07:12:46;8.82;;;6.70;;
10347;SDS011;5220;43.192;23.284;2022-07-30T07:15:13;9.85;;;6.95;;
10347;SDS011;5220;43.192;23.284;2022-07-30T07:17:40;8.27;;;7.28;;
10347;SDS011;5220;43.192;23.284;2022-07-30T07:20:07;7.30;;;6.65;;
10347;SDS011;5220;43.192;23.284;2022-07-30T07:22:36;8.82;;;6.85;;
10347;SDS011;5220;43.192;23.284;2022-07-30T07:25:03;7.53;;;6.75;;
10347;SDS011;5220;43.192;23.284;2022-07-30T07:27:31;7.60;;;6.80;;
10347;SDS011;5220;43.192;23.284;2022-07-30T07:29:58;7.47;;;6.70;;
10347;SDS011;5220;43.192;23.284;2022-07-30T07:32:25;6.80;;;6.00;;
10347;SDS011;5220;43.192;23.284;2022-07-30T07:34:51;12.68;;;6.40;;
10347;SDS011;5220;43.192;23.284;2022-07-30T07:37:18;7.60;;;6.28;;
10347;SDS011;5220;43.192;23.284;2022-07-30T07:39:46;8.35;;;5.88;;
10347;SDS011;5220;43.192;23.284;2022-07-30T07:42:13;7.20;;;6.63;;
10347;SDS011;5220;43.192;23.284;2022-07-30T07:44:40;7.78;;;6.60;;
10347;SDS011;5220;43.192;23.284;2022-07-30T07:47:07;6.72;;;6.18;;
10347;SDS011;5220;43.192;23.284;2022-07-30T07:49:33;7.03;;;6.20;;
10347;SDS011;5220;43.192;23.284;2022-07-30T07:52:00;7.07;;;6.38;;
10347;SDS011;5220;43.192;23.284;2022-07-30T07:54:27;6.80;;;5.95;;
10347;SDS011;5220;43.192;23.284;2022-07-30T07:56:55;6.68;;;6.07;;
10347;SDS011;5220;43.192;23.284;2022-07-30T07:59:22;7.55;;;6.90;;
10347;SDS011;5220;43.192;23.284;2022-07-30T08:01:49;7.78;;;6.10;;
10347;SDS011;5220;43.192;23.284;2022-07-30T08:04:16;9.13;;;7.20;;
10347;SDS011;5220;43.192;23.284;2022-07-30T08:06:43;10.77;;;6.88;;
10347;SDS011;5220;43.192;23.284;2022-07-30T08:09:10;9.63;;;6.65;;
10347;SDS011;5220;43.192;23.284;2022-07-30T08:11:36;8.73;;;6.85;;
10347;SDS011;5220;43.192;23.284;2022-07-30T08:14:04;7.90;;;6.07;;
10347;SDS011;5220;43.192;23.284;2022-07-30T08:16:31;8.07;;;6.18;;
10347;SDS011;5220;43.192;23.284;2022-07-30T08:18:58;7.47;;;6.78;;
10347;SDS011;5220;43.192;23.284;2022-07-30T08:21:25;7.15;;;6.15;;
10347;SDS011;5220;43.192;23.284;2022-07-30T08:23:51;6.75;;;6.15;;
10347;SDS011;5220;43.192;23.284;2022-07-30T08:26:18;9.65;;;6.40;;
10347;SDS011;5220;43.192;23.284;2022-07-30T08:28:45;7.40;;;6.30;;
10347;SDS011;5220;43.192;23.284;2022-07-30T08:31:13;6.82;;;6.18;;
10347;SDS011;5220;43.192;23.284;2022-07-30T08:33:40;8.32;;;7.22;;
10347;SDS011;5220;43.192;23.284;2022-07-30T08:36:06;7.65;;;6.88;;
10347;SDS011;5220;43.192;23.284;2022-07-30T08:38:33;6.80;;;6.18;;
10347;SDS011;5220;43.192;23.284;2022-07-30T08:41:00;7.20;;;6.60;;
10347;SDS011;5220;43.192;23.284;2022-07-30T08:43:27;10.10;;;6.90;;
10347;SDS011;5220;43.192;23.284;2022-07-30T08:45:54;8.48;;;6.90;;
10347;SDS011;5220;43.192;23.284;2022-07-30T08:48:23;8.02;;;6.82;;
10347;SDS011;5220;43.192;23.284;2022-07-30T08:50:50;7.50;;;6.80;;
10347;SDS011;5220;43.192;23.284;2022-07-30T08:53:17;7.05;;;6.35;;
10347;SDS011;5220;43.192;23.284;2022-07-30T08:55:45;7.10;;;6.50;;
10347;SDS011;5220;43.192;23.284;2022-07-30T08:58:19;8.05;;;6.38;;
10347;SDS011;5220;43.192;23.284;2022-07-30T09:00:51;7.38;;;6.50;;
10347;SDS011;5220;43.192;23.284;2022-07-30T09:03:18;7.70;;;6.88;;
10347;SDS011;5220;43.192;23.284;2022-07-30T09:05:46;7.97;;;7.15;;
10347;SDS011;5220;43.192;23.284;2022-07-30T09:08:13;7.20;;;6.53;;
10347;SDS011;5220;43.192;23.284;2022-07-30T09:10:40;11.00;;;7.03;;
10347;SDS011;5220;43.192;23.284;2022-07-30T09:13:21;7.55;;;6.85;;
10347;SDS011;5220;43.192;23.284;2022-07-30T09:15:49;7.18;;;6.47;;
10347;SDS011;5220;43.192;23.284;2022-07-30T09:18:21;6.80;;;6.00;;
10347;SDS011;5220;43.192;23.284;2022-07-30T09:20:53;6.90;;;6.40;;
10347;SDS011;5220;43.192;23.284;2022-07-30T09:23:21;9.20;;;6.95;;
10347;SDS011;5220;43.192;23.284;2022-07-30T09:25:48;7.05;;;6.53;;
10347;SDS011;5220;43.192;23.284;2022-07-30T09:28:15;7.45;;;6.70;;
10347;SDS011;5220;43.192;23.284;2022-07-30T09:30:42;8.23;;;6.80;;
10347;SDS011;5220;43.192;23.284;2022-07-30T09:33:11;7.32;;;6.63;;
10347;SDS011;5220;43.192;23.284;2022-07-30T09:35:38;11.20;;;7.35;;
10347;SDS011;5220;43.192;23.284;2022-07-30T09:38:07;7.88;;;7.13;;
10347;SDS011;5220;43.192;23.284;2022-07-30T09:40:35;7.95;;;7.22;;
10347;SDS011;5220;43.192;23.284;2022-07-30T09:43:06;8.10;;;6.88;;
10347;SDS011;5220;43.192;23.284;2022-07-30T09:45:34;7.55;;;6.85;;
10347;SDS011;5220;43.192;23.284;2022-07-30T09:48:02;7.72;;;7.05;;
10347;SDS011;5220;43.192;23.284;2022-07-30T09:50:46;14.70;;;9.68;;
10347;SDS011;5220;43.192;23.284;2022-07-30T09:53:15;7.53;;;6.78;;
10347;SDS011;5220;43.192;23.284;2022-07-30T09:55:42;8.60;;;7.30;;
10347;SDS011;5220;43.192;23.284;2022-07-30T09:58:10;7.53;;;6.93;;
10347;SDS011;5220;43.192;23.284;2022-07-30T10:00:38;9.85;;;7.50;;
10347;SDS011;5220;43.192;23.284;2022-07-30T10:03:16;9.48;;;7.32;;
10347;SDS011;5220;43.192;23.284;2022-07-30T10:05:51;10.23;;;7.43;;
10347;SDS011;5220;43.192;23.284;2022-07-30T10:08:20;8.30;;;7.50;;
10347;SDS011;5220;43.192;23.284;2022-07-30T10:11:04;7.57;;;6.85;;
10347;SDS011;5220;43.192;23.284;2022-07-30T10:13:31;8.05;;;7.10;;
10347;SDS011;5220;43.192;23.284;2022-07-30T10:16:01;8.48;;;7.63;;
10347;SDS011;5220;43.192;23.284;2022-07-30T10:18:28;8.02;;;7.25;;
10347;SDS011;5220;43.192;23.284;2022-07-30T10:20:56;8.05;;;7.32;;
10347;SDS011;5220;43.192;23.284;2022-07-30T10:23:26;8.32;;;7.22;;
10347;SDS011;5220;43.192;23.284;2022-07-30T10:25:54;8.07;;;7.38;;
10347;SDS011;5220;43.192;23.284;2022-07-30T10:28:22;7.85;;;7.20;;
10347;SDS011;5220;43.192;23.284;2022-07-30T10:30:50;7.75;;;7.05;;
10347;SDS011;5220;43.192;23.284;2022-07-30T10:33:17;8.27;;;7.22;;
10347;SDS011;5220;43.192;23.284;2022-07-30T10:35:46;8.77;;;7.45;;
10347;SDS011;5220;43.192;23.284;2022-07-30T10:38:13;7.30;;;6.60;;
10347;SDS011;5220;43.192;23.284;2022-07-30T10:40:46;7.50;;;6.80;;
10347;SDS011;5220;43.192;23.284;2022-07-30T10:43:26;7.45;;;6.53;;
10347;SDS011;5220;43.192;23.284;2022-07-30T10:46:08;7.85;;;6.93;;
10347;SDS011;5220;43.192;23.284;2022-07-30T10:48:43;7.85;;;7.10;;
10347;SDS011;5220;43.192;23.284;2022-07-30T10:51:10;7.72;;;6.97;;
10347;SDS011;5220;43.192;23.284;2022-07-30T10:53:37;8.82;;;6.45;;
10347;SDS011;5220;43.192;23.284;2022-07-30T10:56:12;7.68;;;7.03;;
10347;SDS011;5220;43.192;23.284;2022-07-30T11:01:28;8.27;;;6.65;;
10347;SDS011;5220;43.192;23.284;2022-07-30T11:04:30;7.53;;;6.70;;
10347;SDS011;5220;43.192;23.284;2022-07-30T11:09:53;7.00;;;6.43;;
10347;SDS011;5220;43.192;23.284;2022-07-30T11:15:30;7.30;;;6.63;;
10347;SDS011;5220;43.192;23.284;2022-07-30T11:18:20;6.95;;;6.35;;
10347;SDS011;5220;43.192;23.284;2022-07-30T11:23:44;7.50;;;6.80;;
10347;SDS011;5220;43.192;23.284;2022-07-30T11:29:14;6.68;;;6.18;;
10347;SDS011;5220;43.192;23.284;2022-07-30T11:34:51;8.50;;;6.35;;
10347;SDS011;5220;43.192;23.284;2022-07-30T11:37:19;7.50;;;6.90;;
10347;SDS011;5220;43.192;23.284;2022-07-30T11:42:38;6.70;;;6.20;;
10347;SDS011;5220;43.192;23.284;2022-07-30T11:45:18;6.85;;;6.35;;
10347;SDS011;5220;43.192;23.284;2022-07-30T11:47:55;7.07;;;6.47;;
10347;SDS011;5220;43.192;23.284;2022-07-30T11:50:24;7.13;;;6.45;;
10347;SDS011;5220;43.192;23.284;2022-07-30T11:52:53;11.52;;;6.78;;
10347;SDS011;5220;43.192;23.284;2022-07-30T11:55:22;7.03;;;6.43;;
10347;SDS011;5220;43.192;23.284;2022-07-30T11:57:50;8.10;;;6.43;;
10347;SDS011;5220;43.192;23.284;2022-07-30T12:00:17;6.53;;;5.88;;
10347;SDS011;5220;43.192;23.284;2022-07-30T12:02:45;7.32;;;6.40;;
10347;SDS011;5220;43.192;23.284;2022-07-30T12:05:14;7.15;;;6.40;;
10347;SDS011;5220;43.192;23.284;2022-07-30T12:07:41;6.70;;;6.03;;
10347;SDS011;5220;43.192;23.284;2022-07-30T12:10:12;6.72;;;6.03;;
10347;SDS011;5220;43.192;23.284;2022-07-30T12:12:40;8.75;;;5.97;;
10347;SDS011;5220;43.192;23.284;2022-07-30T12:15:07;6.97;;;6.38;;
10347;SDS011;5220;43.192;23.284;2022-07-30T12:17:41;6.70;;;6.13;;
10347;SDS011;5220;43.192;23.284;2022-07-30T12:20:16;8.10;;;5.80;;
10347;SDS011;5220;43.192;23.284;2022-07-30T12:22:45;7.45;;;5.70;;
10347;SDS011;5220;43.192;23.284;2022-07-30T12:25:12;7.45;;;6.70;;
10347;SDS011;5220;43.192;23.284;2022-07-30T12:27:40;7.00;;;6.35;;
10347;SDS011;5220;43.192;23.284;2022-07-30T12:30:12;7.10;;;6.40;;
10347;SDS011;5220;43.192;23.284;2022-07-30T12:32:39;6.68;;;5.90;;
10347;SDS011;5220;43.192;23.284;2022-07-30T12:35:07;6.72;;;6.20;;
10347;SDS011;5220;43.192;23.284;2022-07-30T12:37:35;7.10;;;6.30;;
10347;SDS011;5220;43.192;23.284;2022-07-30T12:40:03;8.13;;;6.00;;
10347;SDS011;5220;43.192;23.284;2022-07-30T12:42:31;6.60;;;5.60;;
10347;SDS011;5220;43.192;23.284;2022-07-30T12:44:58;6.40;;;5.80;;
10347;SDS011;5220;43.192;23.284;2022-07-30T12:47:25;6.10;;;5.03;;
10347;SDS011;5220;43.192;23.284;2022-07-30T12:49:53;6.10;;;5.60;;
10347;SDS011;5220;43.192;23.284;2022-07-30T12:52:22;8.90;;;5.82;;
10347;SDS011;5220;43.192;23.284;2022-07-30T12:54:58;7.80;;;5.75;;
10347;SDS011;5220;43.192;23.284;2022-07-30T13:00:20;9.02;;;5.82;;
10347;SDS011;5220;43.192;23.284;2022-07-30T13:02:48;7.57;;;5.50;;
10347;SDS011;5220;43.192;23.284;2022-07-30T13:05:14;5.57;;;5.13;;
10347;SDS011;5220;43.192;23.284;2022-07-30T13:07:51;8.68;;;5.78;;
10347;SDS011;5220;43.192;23.284;2022-07-30T13:10:20;10.73;;;4.88;;
10347;SDS011;5220;43.192;23.284;2022-07-30T13:12:48;5.22;;;4.78;;
10347;SDS011;5220;43.192;23.284;2022-07-30T13:15:17;10.32;;;4.90;;
10347;SDS011;5220;43.192;23.284;2022-07-30T13:17:45;6.88;;;5.18;;
10347;SDS011;5220;43.192;23.284;2022-07-30T13:20:12;6.22;;;5.18;;
10347;SDS011;5220;43.192;23.284;2022-07-30T13:22:40;5.60;;;4.85;;
10347;SDS011;5220;43.192;23.284;2022-07-30T13:25:07;5.88;;;5.32;;
10347;SDS011;5220;43.192;23.284;2022-07-30T13:27:36;10.90;;;5.85;;
10347;SDS011;5220;43.192;23.284;2022-07-30T13:30:04;5.63;;;5.13;;
10347;SDS011;5220;43.192;23.284;2022-07-30T13:32:32;5.18;;;4.68;;
10347;SDS011;5220;43.192;23.284;2022-07-30T13:34:58;4.97;;;4.57;;
10347;SDS011;5220;43.192;23.284;2022-07-30T13:37:25;6.10;;;5.57;;
10347;SDS011;5220;43.192;23.284;2022-07-30T13:39:52;5.90;;;5.43;;
10347;SDS011;5220;43.192;23.284;2022-07-30T13:42:19;10.32;;;5.93;;
10347;SDS011;5220;43.192;23.284;2022-07-30T13:44:47;6.15;;;5.13;;
10347;SDS011;5220;43.192;23.284;2022-07-30T13:47:15;10.60;;;6.07;;
10347;SDS011;5220;43.192;23.284;2022-07-30T13:49:42;7.13;;;5.85;;
10347;SDS011;5220;43.192;23.284;2022-07-30T13:52:14;6.68;;;5.32;;
10347;SDS011;5220;43.192;23.284;2022-07-30T13:54:42;6.18;;;5.60;;
10347;SDS011;5220;43.192;23.284;2022-07-30T13:57:11;11.13;;;5.63;;
10347;SDS011;5220;43.192;23.284;2022-07-30T13:59:38;6.03;;;5.43;;
10347;SDS011;5220;43.192;23.284;2022-07-30T14:02:07;8.18;;;5.65;;
10347;SDS011;5220;43.192;23.284;2022-07-30T14:04:34;6.72;;;5.70;;
10347;SDS011;5220;43.192;23.284;2022-07-30T14:07:01;6.88;;;5.53;;
10347;SDS011;5220;43.192;23.284;2022-07-30T14:09:27;5.60;;;5.20;;
10347;SDS011;5220;43.192;23.284;2022-07-30T14:11:54;7.25;;;5.55;;
10347;SDS011;5220;43.192;23.284;2022-07-30T14:14:21;9.13;;;5.10;;
10347;SDS011;5220;43.192;23.284;2022-07-30T14:16:48;6.88;;;5.30;;
10347;SDS011;5220;43.192;23.284;2022-07-30T14:19:18;7.10;;;5.50;;
10347;SDS011;5220;43.192;23.284;2022-07-30T14:21:45;6.78;;;6.00;;
10347;SDS011;5220;43.192;23.284;2022-07-30T14:24:12;6.05;;;5.43;;
10347;SDS011;5220;43.192;23.284;2022-07-30T14:26:40;5.95;;;5.55;;
10347;SDS011;5220;43.192;23.284;2022-07-30T14:29:08;5.90;;;5.40;;
10347;SDS011;5220;43.192;23.284;2022-07-30T14:31:35;5.88;;;5.45;;
10347;SDS011;5220;43.192;23.284;2022-07-30T14:34:02;7.13;;;5.47;;
10347;SDS011;5220;43.192;23.284;2022-07-30T14:36:31;7.53;;;6.60;;
10347;SDS011;5220;43.192;23.284;2022-07-30T14:38:58;9.15;;;7.07;;
10347;SDS011;5220;43.192;23.284;2022-07-30T14:41:25;57.10;;;9.25;;
10347;SDS011;5220;43.192;23.284;2022-07-30T14:43:52;198.50;;;19.50;;
10347;SDS011;5220;43.192;23.284;2022-07-30T14:46:25;14.02;;;5.50;;
10347;SDS011;5220;43.192;23.284;2022-07-30T14:48:52;9.05;;;5.25;;
10347;SDS011;5220;43.192;23.284;2022-07-30T14:51:20;12.77;;;6.35;;
10347;SDS011;5220;43.192;23.284;2022-07-30T14:53:48;12.45;;;7.63;;
10347;SDS011;5220;43.192;23.284;2022-07-30T14:56:15;11.05;;;6.68;;
10347;SDS011;5220;43.192;23.284;2022-07-30T14:58:43;10.60;;;7.32;;
10347;SDS011;5220;43.192;23.284;2022-07-30T15:01:10;16.75;;;7.78;;
10347;SDS011;5220;43.192;23.284;2022-07-30T15:03:36;10.02;;;6.72;;
10347;SDS011;5220;43.192;23.284;2022-07-30T15:06:03;11.68;;;7.78;;
10347;SDS011;5220;43.192;23.284;2022-07-30T15:08:33;10.50;;;7.03;;
10347;SDS011;5220;43.192;23.284;2022-07-30T15:11:03;10.15;;;7.40;;
10347;SDS011;5220;43.192;23.284;2022-07-30T15:13:30;8.52;;;7.60;;
10347;SDS011;5220;43.192;23.284;2022-07-30T15:15:57;11.05;;;8.60;;
10347;SDS011;5220;43.192;23.284;2022-07-30T15:18:24;9.90;;;8.32;;